Time;durP1;ratioP1;P1;durP2;ratioP2;P2;SDS_P1;SDS_P2;PMS_P1;PMS_P2;Temp;Humidity;BMP_temperature;BMP_pressure;BME280_temperature;BME280_humidity;BME280_pressure;Samples;Min_cycle;Max_cycle;Signal;HPM_P1;HPM_P2
2022/03/22 00:00:10;;;;;;;19.10;11.00;;;10.70;99.90;;;;;;5076724;28;20512;-68
2022/03/22 00:02:38;;;;;;;18.83;12.70;;;10.60;99.90;;;;;;5076426;28;20429;-69
2022/03/22 00:05:05;;;;;;;19.50;11.53;;;10.60;99.90;;;;;;5078036;28;20484;-67
2022/03/22 00:07:32;;;;;;;23.27;13.37;;;10.50;99.90;;;;;;5081717;28;20458;-68
2022/03/22 00:09:59;;;;;;;23.43;11.50;;;10.40;99.90;;;;;;5069877;28;20478;-68
2022/03/22 00:12:26;;;;;;;26.83;13.30;;;10.40;99.90;;;;;;5078875;28;20493;-68
2022/03/22 00:14:53;;;;;;;21.37;12.50;;;10.50;99.90;;;;;;5081066;28;20499;-68
2022/03/22 00:17:20;;;;;;;24.23;13.03;;;10.50;99.90;;;;;;5080491;28;21011;-68
2022/03/22 00:19:48;;;;;;;29.13;13.00;;;10.50;99.90;;;;;;5080657;28;20467;-71
2022/03/22 00:22:15;;;;;;;25.67;13.50;;;10.40;99.90;;;;;;5084865;28;20519;-69
2022/03/22 00:24:42;;;;;;;29.40;12.00;;;10.40;99.90;;;;;;5090789;28;20450;-70
2022/03/22 00:27:09;;;;;;;21.87;13.90;;;10.30;99.90;;;;;;5086107;28;21006;-69
2022/03/22 00:29:35;;;;;;;18.97;11.70;;;10.30;99.90;;;;;;5081060;28;20537;-70
2022/03/22 00:32:03;;;;;;;22.40;13.00;;;10.20;99.90;;;;;;5078271;28;20458;-69
2022/03/22 00:34:29;;;;;;;21.10;12.07;;;10.20;99.90;;;;;;5080006;28;20457;-69
2022/03/22 00:36:58;;;;;;;24.73;12.43;;;10.20;99.90;;;;;;5082932;28;20450;-69
2022/03/22 00:39:25;;;;;;;29.20;11.67;;;10.20;99.90;;;;;;5075305;28;20573;-69
2022/03/22 00:41:53;;;;;;;30.43;11.07;;;10.00;99.90;;;;;;5077091;28;20436;-69
2022/03/22 00:44:20;;;;;;;17.10;10.80;;;10.00;99.90;;;;;;5079954;28;20435;-68
2022/03/22 00:46:47;;;;;;;22.27;11.90;;;10.00;99.90;;;;;;5082908;28;20456;-68
2022/03/22 00:49:14;;;;;;;19.87;11.00;;;10.00;99.90;;;;;;5073385;28;21020;-68
2022/03/22 00:51:41;;;;;;;24.03;13.00;;;10.00;99.90;;;;;;5081929;28;20453;-68
2022/03/22 00:54:09;;;;;;;18.27;11.93;;;9.80;99.90;;;;;;5078982;28;20968;-68
2022/03/22 00:56:35;;;;;;;23.80;12.20;;;9.80;99.90;;;;;;5085059;28;20432;-68
2022/03/22 01:01:46;;;;;;;23.77;12.40;;;9.70;99.90;;;;;;5077766;28;20794;-68
2022/03/22 01:04:13;;;;;;;16.53;10.80;;;9.60;99.90;;;;;;5079211;28;21011;-68
2022/03/22 01:06:39;;;;;;;36.20;12.37;;;9.50;99.90;;;;;;5079687;28;20530;-68
2022/03/22 01:09:06;;;;;;;27.93;15.00;;;9.50;99.90;;;;;;5079937;28;20902;-68
2022/03/22 01:11:34;;;;;;;27.10;14.93;;;9.50;99.90;;;;;;5079258;28;20428;-68
2022/03/22 01:14:01;;;;;;;20.20;10.67;;;9.40;99.90;;;;;;5074274;28;20461;-68
2022/03/22 01:16:27;;;;;;;19.13;10.97;;;9.40;99.90;;;;;;5078611;28;20417;-69
2022/03/22 01:18:54;;;;;;;25.73;11.40;;;9.40;99.90;;;;;;5080897;28;20452;-68
2022/03/22 01:21:21;;;;;;;21.47;13.07;;;9.40;99.90;;;;;;5077016;28;20453;-68
2022/03/22 01:23:50;;;;;;;26.03;11.83;;;9.40;99.90;;;;;;5080652;28;21032;-68
2022/03/22 01:26:16;;;;;;;16.73;11.40;;;9.40;99.90;;;;;;5077660;28;20436;-68
2022/03/22 01:28:44;;;;;;;19.20;13.30;;;9.30;99.90;;;;;;5078871;28;20481;-68
2022/03/22 01:31:11;;;;;;;24.40;13.40;;;9.20;99.90;;;;;;5080402;28;20440;-68
2022/03/22 01:33:37;;;;;;;23.03;10.93;;;9.10;99.90;;;;;;5082974;28;20424;-68
2022/03/22 01:36:05;;;;;;;25.13;12.20;;;9.10;99.90;;;;;;5074969;28;20436;-68
2022/03/22 01:38:32;;;;;;;24.43;11.47;;;9.00;99.90;;;;;;5073297;28;20486;-67
2022/03/22 01:40:58;;;;;;;20.70;11.23;;;9.10;99.90;;;;;;5076179;28;21066;-68
2022/03/22 01:43:26;;;;;;;27.30;13.67;;;8.90;99.90;;;;;;5075142;28;20461;-68
2022/03/22 01:45:54;;;;;;;20.07;10.90;;;8.80;99.90;;;;;;5079805;28;20452;-68
2022/03/22 01:48:21;;;;;;;19.17;10.20;;;8.80;99.90;;;;;;5075224;28;20853;-68
2022/03/22 01:50:47;;;;;;;19.57;11.80;;;8.80;99.90;;;;;;5074649;28;20428;-68
2022/03/22 01:53:15;;;;;;;24.40;10.87;;;8.80;99.90;;;;;;5077612;28;20618;-68
2022/03/22 01:55:41;;;;;;;21.90;10.90;;;8.80;99.90;;;;;;5077301;28;20454;-68
2022/03/22 01:58:08;;;;;;;31.43;14.23;;;8.80;99.90;;;;;;5077972;28;20809;-68
2022/03/22 02:00:35;;;;;;;21.30;12.43;;;8.80;99.90;;;;;;5059149;22;20550;-70
2022/03/22 02:05:52;;;;;;;23.40;12.17;;;8.70;99.90;;;;;;5031805;28;21236;-70
2022/03/22 02:08:20;;;;;;;18.60;10.43;;;8.70;99.90;;;;;;5040129;28;20435;-70
2022/03/22 02:10:47;;;;;;;24.20;15.30;;;8.70;99.90;;;;;;5025628;28;20487;-70
2022/03/22 02:13:14;;;;;;;20.77;10.73;;;8.60;99.90;;;;;;5038094;28;20438;-70
2022/03/22 02:15:41;;;;;;;18.77;12.00;;;8.60;99.90;;;;;;5033135;28;20442;-70
2022/03/22 02:18:09;;;;;;;33.40;12.40;;;8.50;99.90;;;;;;5034895;28;20511;-70
2022/03/22 02:20:37;;;;;;;26.20;13.67;;;8.60;99.90;;;;;;5035131;28;20478;-70
2022/03/22 02:23:07;;;;;;;21.30;11.83;;;8.60;99.90;;;;;;5035283;28;20442;-70
2022/03/22 02:25:36;;;;;;;20.30;12.07;;;8.40;99.90;;;;;;5040473;28;20447;-70
2022/03/22 02:28:04;;;;;;;25.83;10.20;;;8.40;99.90;;;;;;5037419;28;20507;-70
2022/03/22 02:30:31;;;;;;;24.67;11.80;;;8.50;99.90;;;;;;5040795;28;20468;-71
2022/03/22 02:33:01;;;;;;;19.70;11.40;;;8.60;99.90;;;;;;5031033;28;20434;-70
2022/03/22 02:35:29;;;;;;;16.20;10.07;;;8.40;99.90;;;;;;5034007;28;20894;-70
2022/03/22 02:37:57;;;;;;;18.70;9.47;;;8.10;99.90;;;;;;5027876;28;21156;-70
2022/03/22 02:40:26;;;;;;;20.33;9.67;;;8.10;99.90;;;;;;5036222;28;20458;-70
2022/03/22 02:42:54;;;;;;;26.13;11.50;;;8.20;99.90;;;;;;5031355;28;20480;-70
2022/03/22 02:45:22;;;;;;;15.90;9.37;;;8.40;99.90;;;;;;5035023;28;20526;-70
2022/03/22 02:47:49;;;;;;;23.90;10.67;;;8.30;99.90;;;;;;5030127;28;20506;-70
2022/03/22 02:50:16;;;;;;;20.70;11.03;;;8.30;99.90;;;;;;5036293;28;20458;-70
2022/03/22 02:53:00;;;;;;;16.07;9.87;;;8.30;99.90;;;;;;5029548;28;20584;-70
2022/03/22 02:55:27;;;;;;;18.07;8.20;;;8.30;99.90;;;;;;5030863;28;20468;-70
2022/03/22 02:57:54;;;;;;;19.13;8.83;;;8.20;99.90;;;;;;5034664;28;20911;-70
2022/03/22 03:00:23;;;;;;;20.33;9.60;;;8.30;99.90;;;;;;5030208;28;20580;-70
2022/03/22 03:02:52;;;;;;;14.13;10.40;;;8.20;99.90;;;;;;5034633;28;20498;-70
2022/03/22 03:05:21;;;;;;;21.83;11.70;;;8.20;99.90;;;;;;5027752;28;20620;-70
2022/03/22 03:07:48;;;;;;;24.90;10.60;;;8.10;99.90;;;;;;5026536;28;20475;-69
2022/03/22 03:10:15;;;;;;;19.93;10.63;;;8.20;99.90;;;;;;5036074;28;20536;-70
2022/03/22 03:12:42;;;;;;;15.70;9.17;;;8.20;99.90;;;;;;5035256;28;20438;-70
2022/03/22 03:15:11;;;;;;;15.07;9.70;;;8.20;99.90;;;;;;5029429;28;20492;-69
2022/03/22 03:17:39;;;;;;;13.80;9.40;;;8.20;99.90;;;;;;5036111;28;20488;-69
2022/03/22 03:20:07;;;;;;;12.53;8.00;;;8.20;99.90;;;;;;5041262;28;20480;-70
2022/03/22 03:22:35;;;;;;;23.00;11.40;;;8.10;99.90;;;;;;5037104;28;20433;-69
2022/03/22 03:25:02;;;;;;;20.83;9.97;;;8.10;99.90;;;;;;5033420;28;20487;-70
2022/03/22 03:27:29;;;;;;;17.03;8.97;;;8.10;99.90;;;;;;5033408;28;21065;-70
2022/03/22 03:29:56;;;;;;;20.00;10.13;;;8.10;99.90;;;;;;5037673;28;20441;-70
2022/03/22 03:32:24;;;;;;;20.30;11.07;;;8.10;99.90;;;;;;5039125;28;20463;-70
2022/03/22 03:34:50;;;;;;;16.83;11.50;;;8.10;99.90;;;;;;5037318;28;20434;-70
2022/03/22 03:37:17;;;;;;;13.10;8.20;;;8.10;99.90;;;;;;5038010;28;20448;-71
2022/03/22 03:39:44;;;;;;;15.63;10.33;;;8.10;99.90;;;;;;5033297;28;20486;-70
2022/03/22 03:42:11;;;;;;;13.53;8.13;;;8.10;99.90;;;;;;5038751;28;20785;-70
2022/03/22 03:47:24;;;;;;;15.03;9.27;;;7.90;99.90;;;;;;5038589;28;20437;-70
2022/03/22 03:49:53;;;;;;;12.77;8.97;;;7.90;99.90;;;;;;5035194;28;20515;-70
2022/03/22 03:52:21;;;;;;;18.47;11.00;;;7.80;99.90;;;;;;5036253;28;20484;-69
2022/03/22 03:54:49;;;;;;;15.27;8.43;;;7.60;99.90;;;;;;5039848;28;20435;-69
2022/03/22 03:57:15;;;;;;;14.27;8.20;;;7.70;99.90;;;;;;5033353;28;20433;-69
2022/03/22 03:59:43;;;;;;;19.97;10.20;;;7.80;99.90;;;;;;5037360;28;20465;-69
2022/03/22 04:02:10;;;;;;;25.07;10.27;;;7.80;99.90;;;;;;5039640;28;20446;-70
2022/03/22 04:04:39;;;;;;;17.70;9.70;;;7.80;99.90;;;;;;5037864;28;20534;-69
2022/03/22 04:07:07;;;;;;;16.87;11.90;;;7.70;99.90;;;;;;5030569;28;20590;-70
2022/03/22 04:09:35;;;;;;;17.07;9.13;;;7.50;99.90;;;;;;5035951;28;20587;-70
2022/03/22 04:12:02;;;;;;;19.57;10.23;;;7.50;99.90;;;;;;5032889;28;20869;-69
2022/03/22 04:14:31;;;;;;;14.70;10.97;;;7.60;99.90;;;;;;5032380;28;20441;-69
2022/03/22 04:16:58;;;;;;;19.23;10.03;;;7.50;99.90;;;;;;5035657;28;20469;-69
2022/03/22 04:19:25;;;;;;;22.87;8.90;;;7.40;99.90;;;;;;5031161;28;20445;-71
2022/03/22 04:21:54;;;;;;;12.60;8.43;;;7.30;99.90;;;;;;5033746;28;20466;-70
2022/03/22 04:24:22;;;;;;;13.97;8.27;;;7.30;99.90;;;;;;5031207;28;20446;-69
2022/03/22 04:26:48;;;;;;;12.50;9.33;;;7.20;99.90;;;;;;5036876;28;20962;-71
2022/03/22 04:34:47;;;;;;;22.83;9.50;;;7.30;99.90;;;;;;5038058;28;20467;-70
2022/03/22 04:37:16;;;;;;;16.97;9.67;;;7.30;99.90;;;;;;5033850;28;20459;-71
2022/03/22 04:39:44;;;;;;;12.10;7.30;;;7.20;99.90;;;;;;5034392;28;20468;-71
2022/03/22 04:42:13;;;;;;;11.67;7.87;;;7.20;99.90;;;;;;5028187;28;21093;-71
2022/03/22 04:44:40;;;;;;;18.53;10.30;;;7.20;99.90;;;;;;5042055;28;20449;-71
2022/03/22 04:47:07;;;;;;;17.63;8.70;;;7.20;99.90;;;;;;5042488;28;20454;-71
2022/03/22 04:49:35;;;;;;;14.47;8.33;;;7.20;99.90;;;;;;5036961;28;20577;-71
2022/03/22 04:57:32;;;;;;;22.13;10.63;;;6.90;99.90;;;;;;5039517;28;20528;-70
2022/03/22 04:59:59;;;;;;;20.47;10.63;;;6.90;99.90;;;;;;5034578;28;21059;-70
2022/03/22 05:02:25;;;;;;;13.43;7.97;;;6.90;99.90;;;;;;5027502;28;20557;-71
2022/03/22 05:04:52;;;;;;;14.00;9.23;;;6.90;99.90;;;;;;5027935;28;20466;-71
2022/03/22 05:07:19;;;;;;;14.40;7.90;;;7.00;99.90;;;;;;5038859;28;20974;-71
2022/03/22 05:09:46;;;;;;;19.47;8.60;;;7.00;99.90;;;;;;5038147;28;20455;-71
2022/03/22 05:12:14;;;;;;;12.00;6.77;;;6.90;99.90;;;;;;5040466;28;20466;-71
2022/03/22 05:14:42;;;;;;;14.00;7.90;;;7.00;99.90;;;;;;5041683;28;20463;-70
2022/03/22 05:17:11;;;;;;;21.33;8.87;;;7.00;99.90;;;;;;5041738;28;20521;-69
2022/03/22 05:19:38;;;;;;;18.47;7.17;;;7.00;99.90;;;;;;5042284;28;20469;-70
2022/03/22 05:22:05;;;;;;;19.57;9.70;;;6.90;99.90;;;;;;5040894;28;20462;-70
2022/03/22 05:24:32;;;;;;;11.93;6.00;;;6.70;99.90;;;;;;5042271;28;20439;-70
2022/03/22 05:26:59;;;;;;;18.47;9.23;;;6.50;99.90;;;;;;5042931;28;20466;-70
2022/03/22 05:29:27;;;;;;;21.37;9.40;;;6.50;99.90;;;;;;5041024;28;20563;-70
2022/03/22 05:31:54;;;;;;;20.80;10.43;;;6.40;99.90;;;;;;5041563;28;20460;-70
2022/03/22 05:34:20;;;;;;;23.13;9.67;;;6.50;99.90;;;;;;5039722;28;20480;-70
2022/03/22 05:36:47;;;;;;;10.23;6.73;;;6.60;99.90;;;;;;5038934;28;20873;-70
2022/03/22 05:39:13;;;;;;;19.40;8.57;;;6.70;99.90;;;;;;5030138;28;20873;-70
2022/03/22 05:41:40;;;;;;;18.93;9.40;;;6.70;99.90;;;;;;5039113;28;20458;-70
2022/03/22 05:44:10;;;;;;;25.30;9.07;;;6.70;99.90;;;;;;5035227;28;20509;-71
2022/03/22 05:46:38;;;;;;;18.87;9.57;;;6.80;99.90;;;;;;5040186;28;20544;-71
2022/03/22 05:49:05;;;;;;;21.20;8.63;;;6.70;99.90;;;;;;5042271;28;21290;-70
2022/03/22 05:51:31;;;;;;;16.53;9.37;;;6.70;99.90;;;;;;5040205;28;21194;-70
2022/03/22 05:53:59;;;;;;;14.70;9.77;;;6.70;99.90;;;;;;5037997;28;20451;-70
2022/03/22 05:56:26;;;;;;;13.57;8.17;;;6.80;99.90;;;;;;5036054;28;20464;-71
2022/03/22 05:58:52;;;;;;;13.17;9.13;;;6.80;99.90;;;;;;5040323;28;20422;-71
2022/03/22 06:01:19;;;;;;;13.63;7.90;;;7.00;99.90;;;;;;5040418;28;20461;-70
2022/03/22 06:03:47;;;;;;;18.40;9.60;;;7.10;99.90;;;;;;5035838;28;20426;-70
2022/03/22 06:06:13;;;;;;;23.37;8.23;;;7.30;99.90;;;;;;5037771;28;20467;-71
2022/03/22 06:08:41;;;;;;;23.43;11.03;;;7.50;99.90;;;;;;5040479;28;20522;-71
2022/03/22 06:11:08;;;;;;;13.40;7.23;;;7.50;99.90;;;;;;5036173;28;20463;-71
2022/03/22 06:13:34;;;;;;;26.50;8.97;;;7.60;99.90;;;;;;5041305;28;20438;-71
2022/03/22 06:16:05;;;;;;;18.67;8.80;;;7.70;99.90;;;;;;5040516;28;20500;-70
2022/03/22 06:18:32;;;;;;;13.53;8.10;;;7.90;99.90;;;;;;5045083;28;20509;-70
2022/03/22 06:21:00;;;;;;;17.47;10.13;;;8.00;99.90;;;;;;5037100;28;20544;-70
2022/03/22 06:23:27;;;;;;;21.53;9.83;;;8.10;99.90;;;;;;5041187;28;20479;-70
2022/03/22 06:25:54;;;;;;;17.70;8.80;;;8.20;99.90;;;;;;5036038;28;20561;-70
2022/03/22 06:28:21;;;;;;;17.50;7.33;;;8.30;99.90;;;;;;5036296;28;20468;-70
2022/03/22 06:30:48;;;;;;;28.60;10.57;;;8.30;99.90;;;;;;5035494;28;20464;-70
2022/03/22 06:33:17;;;;;;;17.37;9.73;;;8.40;99.90;;;;;;5042295;28;21941;-70
2022/03/22 06:35:45;;;;;;;21.27;8.03;;;8.60;99.90;;;;;;5043652;28;20525;-70
2022/03/22 06:38:13;;;;;;;18.40;10.87;;;8.50;99.90;;;;;;5041723;28;20529;-70
2022/03/22 06:40:40;;;;;;;16.50;10.17;;;8.80;99.90;;;;;;5039148;28;20476;-69
2022/03/22 06:43:08;;;;;;;15.30;8.87;;;9.00;99.90;;;;;;5043990;28;20462;-70
2022/03/22 06:45:36;;;;;;;15.80;10.67;;;9.30;99.90;;;;;;5039392;28;20487;-71
2022/03/22 06:48:03;;;;;;;16.63;9.50;;;9.60;99.90;;;;;;5040570;28;20487;-72
2022/03/22 06:50:31;;;;;;;19.10;9.90;;;9.90;99.90;;;;;;5043285;28;20497;-71
2022/03/22 06:52:58;;;;;;;14.93;9.33;;;10.00;99.90;;;;;;5040876;28;20808;-70
2022/03/22 06:55:26;;;;;;;19.30;9.37;;;10.20;99.90;;;;;;5046815;28;20422;-71
2022/03/22 06:57:53;;;;;;;18.20;8.53;;;10.40;99.90;;;;;;5045087;28;20451;-69
2022/03/22 07:00:21;;;;;;;18.37;10.83;;;10.70;99.90;;;;;;5045405;28;20475;-70
2022/03/22 07:02:49;;;;;;;17.57;11.17;;;10.90;99.90;;;;;;5047109;28;20458;-70
2022/03/22 07:05:16;;;;;;;21.83;11.20;;;11.10;99.90;;;;;;5040460;28;20440;-70
2022/03/22 07:07:43;;;;;;;16.07;9.60;;;11.20;99.90;;;;;;5046061;28;20457;-70
2022/03/22 07:10:12;;;;;;;19.43;10.23;;;11.40;99.90;;;;;;5042738;28;20449;-71
2022/03/22 07:12:53;;;;;;;19.60;12.70;;;11.50;99.90;;;;;;5048443;28;20448;-70
2022/03/22 07:15:23;;;;;;;17.07;10.33;;;11.80;99.90;;;;;;5051897;28;20531;-69
2022/03/22 07:17:50;;;;;;;24.47;11.70;;;11.90;99.90;;;;;;5048742;28;20454;-70
2022/03/22 07:20:17;;;;;;;16.20;9.73;;;12.20;99.90;;;;;;5043698;28;20847;-70
2022/03/22 07:22:44;;;;;;;24.53;11.90;;;12.40;99.90;;;;;;5042377;28;20475;-70
2022/03/22 07:25:11;;;;;;;22.53;12.53;;;12.60;99.90;;;;;;5040257;28;20455;-69
2022/03/22 07:27:37;;;;;;;19.63;11.10;;;12.30;99.90;;;;;;5042912;28;21308;-71
2022/03/22 07:30:07;;;;;;;14.67;9.90;;;12.50;99.90;;;;;;5049571;28;20521;-69
2022/03/22 07:32:33;;;;;;;17.50;12.10;;;12.50;99.90;;;;;;5045945;28;20908;-70
2022/03/22 07:35:00;;;;;;;24.20;10.70;;;12.70;99.90;;;;;;5047944;28;21666;-70
2022/03/22 07:37:29;;;;;;;24.93;12.93;;;12.70;99.90;;;;;;5043869;28;20428;-71
2022/03/22 07:39:57;;;;;;;19.03;10.87;;;13.10;99.90;;;;;;5039504;28;20542;-71
2022/03/22 07:42:27;;;;;;;22.53;10.37;;;13.30;99.90;;;;;;5047956;28;20440;-71
2022/03/22 07:44:55;;;;;;;21.43;10.77;;;13.40;99.90;;;;;;5044961;28;20445;-72
2022/03/22 07:47:23;;;;;;;13.67;10.00;;;13.60;99.90;;;;;;5045183;28;20447;-70
2022/03/22 07:55:19;;;;;;;17.70;12.10;;;14.10;99.90;;;;;;5044118;28;20410;-70
2022/03/22 07:57:46;;;;;;;33.57;11.20;;;14.30;99.90;;;;;;5045714;28;20410;-70
2022/03/22 08:00:13;;;;;;;13.90;12.37;;;14.40;99.90;;;;;;5044363;28;20483;-69
2022/03/22 08:02:52;;;;;;;27.17;13.47;;;14.60;99.90;;;;;;5043582;28;20900;-69
2022/03/22 08:05:19;;;;;;;13.57;8.80;;;14.60;99.90;;;;;;5041841;28;20447;-70
2022/03/22 08:07:46;;;;;;;12.90;10.00;;;14.90;99.70;;;;;;5102285;22;20481;-83
2022/03/22 08:10:13;;;;;;;18.53;9.37;;;15.10;99.90;;;;;;5088903;28;20501;-85
2022/03/22 08:12:40;;;;;;;17.40;8.87;;;15.80;98.80;;;;;;5095448;28;20541;-83
2022/03/22 08:15:08;;;;;;;25.23;12.83;;;16.40;96.30;;;;;;5091642;28;20454;-85
2022/03/22 08:17:35;;;;;;;16.00;11.03;;;17.10;95.20;;;;;;5090729;28;20495;-83
2022/03/22 08:20:03;;;;;;;15.80;9.20;;;18.10;92.10;;;;;;5105200;28;20499;-84
2022/03/22 08:22:32;;;;;;;26.30;11.47;;;18.70;88.50;;;;;;5097649;28;20438;-84
2022/03/22 08:24:58;;;;;;;13.80;9.20;;;19.60;83.00;;;;;;5096430;28;20430;-84
2022/03/22 08:27:25;;;;;;;13.57;9.10;;;20.30;77.40;;;;;;5075437;28;20462;-83
2022/03/22 08:30:09;;;;;;;17.70;10.33;;;20.50;68.90;;;;;;5088262;28;20501;-82
2022/03/22 08:32:39;;;;;;;17.20;9.57;;;20.80;64.30;;;;;;5082711;28;20846;-83
2022/03/22 08:35:08;;;;;;;16.50;11.27;;;21.60;59.70;;;;;;5090523;28;20453;-85
2022/03/22 08:37:52;;;;;;;16.43;9.17;;;21.80;58.70;;;;;;5096330;28;20453;-85
2022/03/22 08:40:50;;;;;;;13.03;9.50;;;21.80;54.90;;;;;;5091479;28;20481;-84
2022/03/22 08:43:25;;;;;;;12.70;10.07;;;22.30;54.20;;;;;;5095076;28;20442;-84
2022/03/22 08:46:14;;;;;;;16.70;9.60;;;22.60;53.00;;;;;;5094833;28;20522;-85
2022/03/22 08:48:45;;;;;;;18.63;10.70;;;23.10;52.00;;;;;;5091512;28;20496;-84
2022/03/22 08:51:15;;;;;;;13.67;9.47;;;23.60;50.90;;;;;;5074976;22;20605;-69
2022/03/22 08:53:42;;;;;;;10.60;8.83;;;23.80;49.80;;;;;;5054171;28;20447;-70
2022/03/22 08:56:10;;;;;;;16.10;9.13;;;23.60;47.70;;;;;;5054428;28;20564;-69
2022/03/22 08:58:37;;;;;;;13.23;10.37;;;23.00;47.20;;;;;;5034256;28;20459;-70
2022/03/22 09:01:04;;;;;;;15.37;9.80;;;23.30;47.40;;;;;;5030386;28;20464;-69
2022/03/22 09:03:35;;;;;;;16.80;10.87;;;23.70;47.20;;;;;;5031289;28;20443;-69
2022/03/22 09:06:11;;;;;;;20.10;11.50;;;23.60;46.00;;;;;;5027325;28;20710;-70
2022/03/22 09:08:41;;;;;;;17.10;10.67;;;24.20;45.70;;;;;;5036608;28;21292;-70
2022/03/22 09:11:08;;;;;;;13.57;9.40;;;23.20;45.60;;;;;;5033991;28;20479;-69
2022/03/22 09:13:35;;;;;;;14.67;9.73;;;22.50;46.90;;;;;;5039847;28;20517;-69
2022/03/22 09:16:02;;;;;;;16.90;10.17;;;23.50;45.90;;;;;;5040937;28;20447;-70
2022/03/22 09:18:29;;;;;;;13.63;10.57;;;24.40;44.80;;;;;;5037213;28;20464;-70
2022/03/22 09:20:56;;;;;;;11.10;9.30;;;24.70;44.70;;;;;;5041691;28;20507;-70
2022/03/22 09:23:24;;;;;;;15.77;10.70;;;25.10;44.40;;;;;;5038884;28;20440;-69
2022/03/22 09:25:54;;;;;;;11.80;10.03;;;25.60;43.30;;;;;;5039179;28;20453;-70
2022/03/22 09:28:20;;;;;;;16.00;12.07;;;25.80;44.30;;;;;;5039716;28;20477;-70
2022/03/22 09:30:49;;;;;;;14.67;10.70;;;26.40;44.10;;;;;;5043572;28;20440;-69
2022/03/22 09:33:16;;;;;;;17.17;11.90;;;26.40;41.10;;;;;;5046539;28;20444;-69
2022/03/22 09:35:43;;;;;;;15.80;10.40;;;26.30;41.60;;;;;;5044864;28;20466;-69
2022/03/22 09:38:10;;;;;;;30.13;11.20;;;26.70;41.20;;;;;;5042939;28;20472;-70
2022/03/22 09:40:37;;;;;;;12.43;9.57;;;27.00;40.40;;;;;;5033353;28;20454;-69
2022/03/22 09:43:06;;;;;;;12.47;9.23;;;27.50;40.40;;;;;;5039257;28;20436;-69
2022/03/22 09:45:34;;;;;;;14.70;11.27;;;27.30;40.80;;;;;;5037088;28;20498;-70
2022/03/22 09:48:00;;;;;;;14.33;10.43;;;26.60;38.90;;;;;;5040329;28;20881;-70
2022/03/22 09:53:09;;;;;;;16.90;11.10;;;26.80;38.70;;;;;;5040336;28;20509;-70
2022/03/22 09:55:36;;;;;;;13.90;10.60;;;26.90;40.30;;;;;;5033081;28;20520;-70
2022/03/22 09:58:03;;;;;;;16.87;10.50;;;28.10;38.40;;;;;;5034644;28;20520;-70
2022/03/22 10:00:31;;;;;;;17.97;11.40;;;28.50;37.20;;;;;;5032046;28;20555;-69
2022/03/22 10:02:59;;;;;;;14.80;12.57;;;28.60;38.60;;;;;;5038967;28;20447;-70
2022/03/22 10:05:26;;;;;;;19.80;12.03;;;28.40;37.10;;;;;;5030806;28;20594;-70
2022/03/22 10:07:59;;;;;;;12.03;10.47;;;28.80;38.00;;;;;;5031746;28;20471;-69
2022/03/22 10:10:26;;;;;;;14.43;11.27;;;29.60;37.00;;;;;;5033343;28;20462;-70
2022/03/22 10:12:58;;;;;;;12.67;10.97;;;29.90;37.90;;;;;;5031812;28;21058;-69
2022/03/22 10:15:32;;;;;;;17.53;11.50;;;29.60;37.90;;;;;;5033450;28;20455;-69
2022/03/22 10:18:04;;;;;;;14.20;9.93;;;29.00;39.00;;;;;;5032823;28;20555;-70
2022/03/22 10:20:31;;;;;;;18.17;10.87;;;29.30;37.20;;;;;;5032653;28;20451;-69
2022/03/22 10:22:59;;;;;;;14.63;11.27;;;29.30;38.50;;;;;;5036774;28;20459;-69
2022/03/22 10:25:27;;;;;;;13.27;10.17;;;29.30;37.10;;;;;;5037231;28;20481;-69
2022/03/22 10:27:55;;;;;;;12.60;9.17;;;29.60;36.60;;;;;;5037698;28;20528;-69
2022/03/22 10:30:22;;;;;;;18.23;11.27;;;29.20;35.20;;;;;;5030999;28;20472;-69
2022/03/22 10:32:51;;;;;;;9.77;8.63;;;28.00;36.40;;;;;;5032154;28;20893;-69
2022/03/22 10:35:20;;;;;;;15.90;10.53;;;28.60;35.80;;;;;;5033548;28;21217;-69
2022/03/22 10:37:49;;;;;;;12.20;9.60;;;29.40;35.30;;;;;;5034925;28;20475;-69
2022/03/22 10:40:25;;;;;;;19.50;14.10;;;29.70;35.90;;;;;;5033289;28;20460;-69
2022/03/22 10:42:53;;;;;;;12.20;9.53;;;29.70;35.40;;;;;;5035254;28;20701;-69
2022/03/22 10:45:20;;;;;;;12.07;9.80;;;29.30;35.90;;;;;;5032596;28;20458;-69
2022/03/22 10:47:47;;;;;;;11.33;10.13;;;29.00;36.30;;;;;;5036929;28;20474;-68
2022/03/22 10:50:15;;;;;;;21.07;11.97;;;28.80;36.20;;;;;;5022195;28;20479;-68
2022/03/22 10:52:52;;;;;;;16.30;10.10;;;28.70;35.00;;;;;;5028487;28;20460;-68
2022/03/22 10:55:22;;;;;;;12.97;10.47;;;28.80;34.80;;;;;;5032800;28;20830;-70
2022/03/22 10:57:51;;;;;;;10.70;8.43;;;27.80;35.50;;;;;;5031832;28;20484;-71
2022/03/22 11:00:18;;;;;;;14.07;10.17;;;27.80;35.40;;;;;;5034956;28;20509;-68
2022/03/22 11:02:48;;;;;;;10.73;7.70;;;27.40;34.60;;;;;;5038621;28;20479;-69
2022/03/22 11:05:19;;;;;;;12.63;7.90;;;27.70;34.90;;;;;;5031493;28;20995;-68
2022/03/22 11:07:47;;;;;;;13.13;8.30;;;27.80;34.50;;;;;;5037809;28;20483;-68
2022/03/22 11:10:16;;;;;;;14.40;8.60;;;26.50;35.60;;;;;;5033770;28;21100;-68
2022/03/22 11:12:43;;;;;;;10.40;8.27;;;26.50;36.30;;;;;;5035791;28;20518;-69
2022/03/22 11:15:11;;;;;;;11.40;9.37;;;27.70;35.90;;;;;;5034853;28;20456;-69
2022/03/22 11:17:39;;;;;;;13.20;8.80;;;28.50;35.20;;;;;;5037923;28;20476;-69
2022/03/22 11:20:08;;;;;;;15.80;8.87;;;29.60;34.60;;;;;;5033121;28;20452;-67
2022/03/22 11:22:36;;;;;;;13.40;8.93;;;29.60;33.10;;;;;;5036893;28;20530;-68
2022/03/22 11:25:08;;;;;;;12.40;8.20;;;29.20;34.50;;;;;;5036034;28;20448;-69
2022/03/22 11:27:35;;;;;;;9.93;8.93;;;29.20;33.30;;;;;;5031555;28;20844;-68
2022/03/22 11:30:04;;;;;;;16.87;8.60;;;27.80;33.10;;;;;;5028064;28;20528;-69
2022/03/22 11:35:17;;;;;;;10.43;6.30;;;27.60;34.00;;;;;;5036431;28;20447;-69
2022/03/22 11:37:56;;;;;;;20.13;9.07;;;26.70;34.20;;;;;;5042121;28;20467;-68
2022/03/22 11:43:11;;;;;;;14.00;9.53;;;26.80;34.20;;;;;;5038879;28;20450;-68
2022/03/22 11:45:47;;;;;;;9.20;5.77;;;26.80;34.50;;;;;;5038974;28;20466;-69
2022/03/22 11:48:16;;;;;;;16.73;8.50;;;27.80;34.10;;;;;;5042907;28;20975;-68
2022/03/22 11:50:44;;;;;;;12.73;7.87;;;26.90;34.50;;;;;;5039902;28;21907;-69
2022/03/22 11:53:19;;;;;;;11.67;8.37;;;27.60;34.60;;;;;;5042948;28;20473;-69
2022/03/22 11:55:50;;;;;;;12.97;8.90;;;27.80;34.10;;;;;;5039822;28;20455;-72
2022/03/22 11:58:16;;;;;;;13.60;8.30;;;28.40;34.10;;;;;;5040647;28;20467;-69
2022/03/22 12:00:45;;;;;;;11.23;9.40;;;28.90;34.10;;;;;;5041036;28;20514;-69
2022/03/22 12:03:14;;;;;;;20.00;9.60;;;28.60;33.90;;;;;;5044068;28;20448;-68
2022/03/22 12:05:40;;;;;;;20.77;9.40;;;28.70;34.00;;;;;;5038956;28;20467;-69
2022/03/22 12:08:09;;;;;;;9.00;7.80;;;29.40;34.20;;;;;;5030214;28;20538;-69
2022/03/22 12:10:37;;;;;;;25.07;8.87;;;30.20;32.60;;;;;;5034899;28;20479;-67
2022/03/22 12:13:04;;;;;;;10.73;7.80;;;29.20;33.10;;;;;;5036982;28;21014;-68
2022/03/22 12:15:31;;;;;;;14.70;10.07;;;29.80;33.10;;;;;;5042089;28;20469;-69
2022/03/22 12:17:58;;;;;;;11.43;7.73;;;30.20;33.00;;;;;;5035330;28;20483;-68
2022/03/22 12:20:27;;;;;;;9.77;7.70;;;30.30;32.90;;;;;;5036542;28;20518;-69
2022/03/22 12:22:58;;;;;;;9.13;6.47;;;28.70;33.10;;;;;;5035546;28;20472;-68
2022/03/22 12:25:26;;;;;;;13.03;6.80;;;28.20;33.20;;;;;;5040498;28;20476;-68
2022/03/22 12:27:57;;;;;;;23.43;7.97;;;27.70;32.60;;;;;;5036503;28;20463;-68
2022/03/22 12:30:25;;;;;;;7.13;6.47;;;27.70;32.70;;;;;;5030420;28;20486;-68
2022/03/22 12:32:52;;;;;;;11.30;6.43;;;27.60;33.30;;;;;;5038055;28;20448;-69
2022/03/22 12:35:20;;;;;;;16.60;7.43;;;27.70;32.60;;;;;;5027171;28;20536;-70
2022/03/22 12:37:48;;;;;;;9.03;5.93;;;27.60;34.10;;;;;;5037130;28;20476;-70
2022/03/22 12:40:16;;;;;;;4.60;4.00;;;28.00;32.80;;;;;;5036492;28;20472;-70
2022/03/22 12:42:43;;;;;;;12.63;6.70;;;27.00;33.20;;;;;;5027082;28;20459;-70
2022/03/22 12:45:12;;;;;;;8.33;4.07;;;26.60;32.90;;;;;;5032844;28;20455;-69
2022/03/22 12:47:41;;;;;;;8.70;4.10;;;26.90;32.00;;;;;;5036223;28;21150;-70
2022/03/22 12:50:09;;;;;;;5.03;3.83;;;26.50;31.70;;;;;;5041318;28;20536;-70
2022/03/22 12:52:37;;;;;;;7.23;3.90;;;26.20;31.90;;;;;;5043528;28;20517;-70
2022/03/22 12:55:05;;;;;;;3.37;2.77;;;25.50;32.70;;;;;;5041581;28;20448;-69
2022/03/22 12:57:33;;;;;;;10.00;4.10;;;25.60;32.90;;;;;;5045545;28;20463;-70
2022/03/22 13:00:00;;;;;;;10.07;3.20;;;25.80;32.40;;;;;;5040296;28;20444;-69
2022/03/22 13:02:28;;;;;;;10.83;5.60;;;26.20;31.40;;;;;;5036045;28;20445;-70
2022/03/22 13:04:55;;;;;;;11.07;5.27;;;26.30;32.10;;;;;;5028544;28;20460;-70
2022/03/22 13:07:24;;;;;;;8.20;5.43;;;26.80;31.70;;;;;;5030444;28;20480;-70
2022/03/22 13:12:36;;;;;;;5.63;4.10;;;28.50;30.60;;;;;;5037160;28;20442;-67
2022/03/22 13:15:05;;;;;;;7.87;3.53;;;28.30;30.60;;;;;;5039609;28;20451;-67